sensor_id;sensor_type;location;lat;lon;timestamp;pressure;altitude;pressure_sealevel;temperature;humidity
81372;BME280;70827;52.206;5.294;2024-02-16T00:00:59;100837.88;;;11.54;76.94
81372;BME280;70827;52.206;5.294;2024-02-16T00:03:25;100837.03;;;11.54;77.10
81372;BME280;70827;52.206;5.294;2024-02-16T00:05:51;100831.91;;;11.49;76.98
81372;BME280;70827;52.206;5.294;2024-02-16T00:08:17;100834.38;;;11.57;77.04
81372;BME280;70827;52.206;5.294;2024-02-16T00:10:42;100826.63;;;11.54;76.77
81372;BME280;70827;52.206;5.294;2024-02-16T00:13:08;100828.41;;;11.52;77.07
81372;BME280;70827;52.206;5.294;2024-02-16T00:15:34;100836.22;;;11.50;76.89
81372;BME280;70827;52.206;5.294;2024-02-16T00:18:02;100834.59;;;11.44;77.46
81372;BME280;70827;52.206;5.294;2024-02-16T00:20:28;100822.38;;;11.50;77.17
81372;BME280;70827;52.206;5.294;2024-02-16T00:22:53;100828.53;;;11.45;77.27
81372;BME280;70827;52.206;5.294;2024-02-16T00:25:19;100823.53;;;11.33;77.28
81372;BME280;70827;52.206;5.294;2024-02-16T00:27:44;100826.81;;;11.44;77.31
81372;BME280;70827;52.206;5.294;2024-02-16T00:30:11;100820.03;;;11.36;77.64
81372;BME280;70827;52.206;5.294;2024-02-16T00:32:36;100829.59;;;11.34;77.81
81372;BME280;70827;52.206;5.294;2024-02-16T00:35:05;100822.59;;;11.37;77.81
81372;BME280;70827;52.206;5.294;2024-02-16T00:37:31;100822.66;;;11.34;77.73
81372;BME280;70827;52.206;5.294;2024-02-16T00:39:56;100814.03;;;11.32;77.89
81372;BME280;70827;52.206;5.294;2024-02-16T00:42:22;100827.84;;;11.34;77.89
81372;BME280;70827;52.206;5.294;2024-02-16T00:44:48;100830.31;;;11.43;77.47
81372;BME280;70827;52.206;5.294;2024-02-16T00:47:13;100814.06;;;11.31;77.64
81372;BME280;70827;52.206;5.294;2024-02-16T00:49:39;100819.28;;;11.29;77.53
81372;BME280;70827;52.206;5.294;2024-02-16T00:52:07;100823.59;;;11.30;77.64
81372;BME280;70827;52.206;5.294;2024-02-16T00:54:33;100821.97;;;11.23;78.18
81372;BME280;70827;52.206;5.294;2024-02-16T00:56:58;100816.00;;;11.18;78.28
81372;BME280;70827;52.206;5.294;2024-02-16T00:59:24;100815.78;;;11.32;77.76
81372;BME280;70827;52.206;5.294;2024-02-16T01:01:49;100816.06;;;11.15;77.92
81372;BME280;70827;52.206;5.294;2024-02-16T01:04:15;100815.09;;;11.21;78.09
81372;BME280;70827;52.206;5.294;2024-02-16T01:06:41;100808.19;;;11.21;77.81
81372;BME280;70827;52.206;5.294;2024-02-16T01:09:09;100804.72;;;11.21;78.04
81372;BME280;70827;52.206;5.294;2024-02-16T01:11:34;100797.75;;;11.24;77.59
81372;BME280;70827;52.206;5.294;2024-02-16T01:14:00;100796.16;;;11.15;77.87
81372;BME280;70827;52.206;5.294;2024-02-16T01:16:26;100797.84;;;11.18;77.86
81372;BME280;70827;52.206;5.294;2024-02-16T01:18:51;100793.53;;;11.17;77.59
81372;BME280;70827;52.206;5.294;2024-02-16T01:21:17;100794.38;;;11.19;77.57
81372;BME280;70827;52.206;5.294;2024-02-16T01:23:42;100796.81;;;11.28;77.31
81372;BME280;70827;52.206;5.294;2024-02-16T01:26:11;100790.84;;;11.23;77.46
81372;BME280;70827;52.206;5.294;2024-02-16T01:28:36;100796.00;;;11.25;77.55
81372;BME280;70827;52.206;5.294;2024-02-16T01:31:02;100795.13;;;11.24;77.37
81372;BME280;70827;52.206;5.294;2024-02-16T01:33:27;100789.13;;;11.22;77.34
81372;BME280;70827;52.206;5.294;2024-02-16T01:35:53;100784.81;;;11.21;77.33
81372;BME280;70827;52.206;5.294;2024-02-16T01:38:19;100784.66;;;11.32;77.52
81372;BME280;70827;52.206;5.294;2024-02-16T01:40:44;100779.44;;;11.33;77.27
81372;BME280;70827;52.206;5.294;2024-02-16T01:43:12;100779.69;;;11.18;77.24
81372;BME280;70827;52.206;5.294;2024-02-16T01:45:38;100781.28;;;11.25;77.11
81372;BME280;70827;52.206;5.294;2024-02-16T01:48:04;100788.44;;;11.12;77.41
81372;BME280;70827;52.206;5.294;2024-02-16T01:50:30;100784.84;;;11.20;77.10
81372;BME280;70827;52.206;5.294;2024-02-16T01:52:56;100786.66;;;11.16;77.42
81372;BME280;70827;52.206;5.294;2024-02-16T01:55:22;100786.78;;;11.07;77.33
81372;BME280;70827;52.206;5.294;2024-02-16T01:57:48;100767.78;;;11.06;77.71
81372;BME280;70827;52.206;5.294;2024-02-16T02:00:16;100777.19;;;11.13;77.31
81372;BME280;70827;52.206;5.294;2024-02-16T02:02:44;100769.31;;;11.18;77.27
81372;BME280;70827;52.206;5.294;2024-02-16T02:05:10;100769.28;;;11.20;77.01
81372;BME280;70827;52.206;5.294;2024-02-16T02:07:35;100757.28;;;11.14;77.41
81372;BME280;70827;52.206;5.294;2024-02-16T02:10:01;100753.66;;;11.23;77.22
81372;BME280;70827;52.206;5.294;2024-02-16T02:12:27;100750.31;;;11.16;77.31
81372;BME280;70827;52.206;5.294;2024-02-16T02:14:52;100739.00;;;11.20;77.03
81372;BME280;70827;52.206;5.294;2024-02-16T02:17:21;100779.84;;;11.07;77.47
81372;BME280;70827;52.206;5.294;2024-02-16T02:19:46;100776.47;;;11.04;77.50
81372;BME280;70827;52.206;5.294;2024-02-16T02:22:16;100781.53;;;11.13;77.61
81372;BME280;70827;52.206;5.294;2024-02-16T02:24:42;100770.44;;;11.03;78.02
81372;BME280;70827;52.206;5.294;2024-02-16T02:27:08;100765.16;;;11.09;78.04
81372;BME280;70827;52.206;5.294;2024-02-16T02:29:33;100765.19;;;11.06;78.33
81372;BME280;70827;52.206;5.294;2024-02-16T02:31:59;100748.13;;;10.93;78.42
81372;BME280;70827;52.206;5.294;2024-02-16T02:34:25;100765.25;;;11.03;78.43
81372;BME280;70827;52.206;5.294;2024-02-16T02:36:51;100760.13;;;10.99;78.47
81372;BME280;70827;52.206;5.294;2024-02-16T02:39:19;100744.75;;;10.88;78.87
81372;BME280;70827;52.206;5.294;2024-02-16T02:41:44;100740.56;;;10.81;78.95
81372;BME280;70827;52.206;5.294;2024-02-16T02:44:10;100754.25;;;10.88;78.93
81372;BME280;70827;52.206;5.294;2024-02-16T02:46:36;100741.25;;;10.89;79.30
81372;BME280;70827;52.206;5.294;2024-02-16T02:49:01;100743.06;;;10.85;79.58
81372;BME280;70827;52.206;5.294;2024-02-16T02:51:27;100745.50;;;10.95;79.71
81372;BME280;70827;52.206;5.294;2024-02-16T02:53:53;100738.78;;;10.83;79.68
81372;BME280;70827;52.206;5.294;2024-02-16T02:56:21;100732.81;;;10.78;79.82
81372;BME280;70827;52.206;5.294;2024-02-16T02:58:46;100717.22;;;10.81;79.68
81372;BME280;70827;52.206;5.294;2024-02-16T03:01:12;100725.94;;;10.77;79.47
81372;BME280;70827;52.206;5.294;2024-02-16T03:03:38;100725.91;;;10.78;79.77
81372;BME280;70827;52.206;5.294;2024-02-16T03:06:05;100719.81;;;10.81;79.46
81372;BME280;70827;52.206;5.294;2024-02-16T03:08:31;100721.44;;;10.87;79.42
81372;BME280;70827;52.206;5.294;2024-02-16T03:10:56;100724.16;;;10.79;79.78
81372;BME280;70827;52.206;5.294;2024-02-16T03:13:24;100725.94;;;10.77;79.94
81372;BME280;70827;52.206;5.294;2024-02-16T03:15:50;100733.72;;;10.74;79.86
81372;BME280;70827;52.206;5.294;2024-02-16T03:18:16;100719.91;;;10.76;79.47
81372;BME280;70827;52.206;5.294;2024-02-16T03:20:41;100719.66;;;10.89;79.10
81372;BME280;70827;52.206;5.294;2024-02-16T03:23:07;100717.91;;;10.91;78.85
81372;BME280;70827;52.206;5.294;2024-02-16T03:25:32;100721.53;;;10.82;78.69
81372;BME280;70827;52.206;5.294;2024-02-16T03:27:58;100730.13;;;10.84;79.09
81372;BME280;70827;52.206;5.294;2024-02-16T03:30:26;100734.59;;;10.74;79.18
81372;BME280;70827;52.206;5.294;2024-02-16T03:32:52;100722.44;;;10.79;79.18
81372;BME280;70827;52.206;5.294;2024-02-16T03:35:17;100732.84;;;10.76;79.07
81372;BME280;70827;52.206;5.294;2024-02-16T03:37:43;100725.94;;;10.77;79.04
81372;BME280;70827;52.206;5.294;2024-02-16T03:40:10;100725.22;;;10.67;79.05
81372;BME280;70827;52.206;5.294;2024-02-16T03:42:36;100716.44;;;10.74;78.99
81372;BME280;70827;52.206;5.294;2024-02-16T03:45:02;100726.78;;;10.77;78.72
81372;BME280;70827;52.206;5.294;2024-02-16T03:47:30;100720.94;;;10.65;79.28
81372;BME280;70827;52.206;5.294;2024-02-16T03:49:55;100724.47;;;10.61;79.23
81372;BME280;70827;52.206;5.294;2024-02-16T03:52:21;100720.16;;;10.58;79.10
81372;BME280;70827;52.206;5.294;2024-02-16T03:54:47;100719.97;;;10.70;78.93
81372;BME280;70827;52.206;5.294;2024-02-16T03:57:12;100718.28;;;10.68;79.02
81372;BME280;70827;52.206;5.294;2024-02-16T03:59:38;100715.75;;;10.65;79.10
81372;BME280;70827;52.206;5.294;2024-02-16T04:02:04;100720.16;;;10.60;79.44
81372;BME280;70827;52.206;5.294;2024-02-16T04:04:32;100722.78;;;10.57;79.46
81372;BME280;70827;52.206;5.294;2024-02-16T04:06:57;100724.47;;;10.61;79.38
81372;BME280;70827;52.206;5.294;2024-02-16T04:09:23;100727.09;;;10.59;79.57
81372;BME280;70827;52.206;5.294;2024-02-16T04:11:49;100724.50;;;10.58;79.20
81372;BME280;70827;52.206;5.294;2024-02-16T04:14:14;100731.41;;;10.59;79.17
81372;BME280;70827;52.206;5.294;2024-02-16T04:16:42;100728.94;;;10.49;79.64
81372;BME280;70827;52.206;5.294;2024-02-16T04:19:08;100726.16;;;10.63;79.48
81372;BME280;70827;52.206;5.294;2024-02-16T04:21:36;100722.75;;;10.58;79.30
81372;BME280;70827;52.206;5.294;2024-02-16T04:24:02;100721.16;;;10.51;79.43
81372;BME280;70827;52.206;5.294;2024-02-16T04:26:27;100720.22;;;10.55;79.58
81372;BME280;70827;52.206;5.294;2024-02-16T04:28:53;100728.00;;;10.55;79.28
81372;BME280;70827;52.206;5.294;2024-02-16T04:31:18;100717.66;;;10.53;79.52
81372;BME280;70827;52.206;5.294;2024-02-16T04:33:44;100717.53;;;10.63;79.24
81372;BME280;70827;52.206;5.294;2024-02-16T04:36:09;100698.72;;;10.48;78.91
81372;BME280;70827;52.206;5.294;2024-02-16T04:38:38;100714.13;;;10.58;79.02
81372;BME280;70827;52.206;5.294;2024-02-16T04:41:04;100710.81;;;10.49;79.10
81372;BME280;70827;52.206;5.294;2024-02-16T04:43:30;100717.81;;;10.44;79.45
81372;BME280;70827;52.206;5.294;2024-02-16T04:45:56;100723.00;;;10.44;79.50
81372;BME280;70827;52.206;5.294;2024-02-16T04:48:21;100730.81;;;10.41;79.42
81372;BME280;70827;52.206;5.294;2024-02-16T04:50:47;100726.44;;;10.45;79.50
81372;BME280;70827;52.206;5.294;2024-02-16T04:53:12;100733.41;;;10.40;79.36
81372;BME280;70827;52.206;5.294;2024-02-16T04:55:41;100722.91;;;10.49;79.37
81372;BME280;70827;52.206;5.294;2024-02-16T04:58:06;100721.19;;;10.49;79.08
81372;BME280;70827;52.206;5.294;2024-02-16T05:00:32;100726.47;;;10.43;79.42
81372;BME280;70827;52.206;5.294;2024-02-16T05:02:57;100725.47;;;10.50;79.26
81372;BME280;70827;52.206;5.294;2024-02-16T05:05:23;100723.88;;;10.43;79.34
81372;BME280;70827;52.206;5.294;2024-02-16T05:07:50;100730.66;;;10.50;79.24
81372;BME280;70827;52.206;5.294;2024-02-16T05:10:16;100728.19;;;10.43;79.51
81372;BME280;70827;52.206;5.294;2024-02-16T05:12:44;100720.25;;;10.53;79.09
81372;BME280;70827;52.206;5.294;2024-02-16T05:15:10;100716.78;;;10.53;79.03
81372;BME280;70827;52.206;5.294;2024-02-16T05:17:35;100714.16;;;10.56;79.03
81372;BME280;70827;52.206;5.294;2024-02-16T05:20:01;100720.28;;;10.50;79.09
81372;BME280;70827;52.206;5.294;2024-02-16T05:22:27;100707.31;;;10.52;78.97
81372;BME280;70827;52.206;5.294;2024-02-16T05:24:52;100703.91;;;10.48;78.76
81372;BME280;70827;52.206;5.294;2024-02-16T05:27:18;100709.03;;;10.53;78.77
81372;BME280;70827;52.206;5.294;2024-02-16T05:29:46;100710.81;;;10.49;78.80
81372;BME280;70827;52.206;5.294;2024-02-16T05:32:12;100703.91;;;10.48;79.10
81372;BME280;70827;52.206;5.294;2024-02-16T05:34:38;100700.38;;;10.52;79.07
81372;BME280;70827;52.206;5.294;2024-02-16T05:37:04;100699.66;;;10.46;79.02
81372;BME280;70827;52.206;5.294;2024-02-16T05:39:29;100702.09;;;10.53;78.72
81372;BME280;70827;52.206;5.294;2024-02-16T05:41:55;100698.72;;;10.48;79.09
81372;BME280;70827;52.206;5.294;2024-02-16T05:44:20;100706.47;;;10.50;79.29
81372;BME280;70827;52.206;5.294;2024-02-16T05:46:49;100694.38;;;10.50;78.97
81372;BME280;70827;52.206;5.294;2024-02-16T05:49:14;100710.56;;;10.65;78.61
81372;BME280;70827;52.206;5.294;2024-02-16T05:51:40;100698.56;;;10.59;78.71
81372;BME280;70827;52.206;5.294;2024-02-16T05:54:06;100702.00;;;10.61;78.58
81372;BME280;70827;52.206;5.294;2024-02-16T05:56:31;100721.84;;;10.62;79.00
81372;BME280;70827;52.206;5.294;2024-02-16T05:58:57;100702.97;;;10.54;79.02
81372;BME280;70827;52.206;5.294;2024-02-16T06:01:22;100711.53;;;10.58;78.82
81372;BME280;70827;52.206;5.294;2024-02-16T06:03:51;100726.28;;;10.54;78.87
81372;BME280;70827;52.206;5.294;2024-02-16T06:06:16;100716.84;;;10.50;79.19
81372;BME280;70827;52.206;5.294;2024-02-16T06:08:42;100705.63;;;10.49;79.48
81372;BME280;70827;52.206;5.294;2024-02-16T06:11:07;100718.53;;;10.52;79.19
81372;BME280;70827;52.206;5.294;2024-02-16T06:13:33;100709.00;;;10.54;79.36
81372;BME280;70827;52.206;5.294;2024-02-16T06:15:59;100718.53;;;10.52;79.39
81372;BME280;70827;52.206;5.294;2024-02-16T06:18:24;100730.78;;;10.44;79.60
81372;BME280;70827;52.206;5.294;2024-02-16T06:20:52;100736.81;;;10.45;79.93
81372;BME280;70827;52.206;5.294;2024-02-16T06:23:18;100741.97;;;10.46;79.71
81372;BME280;70827;52.206;5.294;2024-02-16T06:25:43;100741.06;;;10.49;79.97
81372;BME280;70827;52.206;5.294;2024-02-16T06:28:09;100738.59;;;10.38;80.24
81372;BME280;70827;52.206;5.294;2024-02-16T06:30:35;100742.00;;;10.45;80.20
81372;BME280;70827;52.206;5.294;2024-02-16T06:33:00;100740.31;;;10.39;80.23
81372;BME280;70827;52.206;5.294;2024-02-16T06:35:26;100731.00;;;10.29;80.56
81372;BME280;70827;52.206;5.294;2024-02-16T06:37:54;100755.00;;;10.42;80.66
81372;BME280;70827;52.206;5.294;2024-02-16T06:40:20;100764.44;;;10.46;80.51
81372;BME280;70827;52.206;5.294;2024-02-16T06:42:45;100760.25;;;10.36;80.54
81372;BME280;70827;52.206;5.294;2024-02-16T06:45:11;100765.41;;;10.37;80.96
81372;BME280;70827;52.206;5.294;2024-02-16T06:47:36;100765.34;;;10.40;80.79
81372;BME280;70827;52.206;5.294;2024-02-16T06:50:02;100770.53;;;10.42;80.72
81372;BME280;70827;52.206;5.294;2024-02-16T06:52:28;100773.97;;;10.41;81.07
81372;BME280;70827;52.206;5.294;2024-02-16T06:54:56;100783.56;;;10.36;80.89
81372;BME280;70827;52.206;5.294;2024-02-16T06:57:22;100773.97;;;10.41;80.91
81372;BME280;70827;52.206;5.294;2024-02-16T06:59:47;100773.09;;;10.45;80.91
81372;BME280;70827;52.206;5.294;2024-02-16T07:02:13;100774.81;;;10.44;81.20
81372;BME280;70827;52.206;5.294;2024-02-16T07:04:39;100784.19;;;10.53;81.04
81372;BME280;70827;52.206;5.294;2024-02-16T07:07:05;100784.34;;;10.42;80.90
81372;BME280;70827;52.206;5.294;2024-02-16T07:09:31;100793.81;;;10.45;81.08
81372;BME280;70827;52.206;5.294;2024-02-16T07:11:59;100788.59;;;10.46;81.33
81372;BME280;70827;52.206;5.294;2024-02-16T07:14:24;100792.16;;;10.38;81.48
81372;BME280;70827;52.206;5.294;2024-02-16T07:16:50;100797.09;;;10.56;81.42
81372;BME280;70827;52.206;5.294;2024-02-16T07:19:16;100795.56;;;10.44;81.70
81372;BME280;70827;52.206;5.294;2024-02-16T07:21:41;100793.66;;;10.55;81.46
81372;BME280;70827;52.206;5.294;2024-02-16T07:24:07;100799.72;;;10.54;81.39
81372;BME280;70827;52.206;5.294;2024-02-16T07:26:32;100805.91;;;10.46;81.67
81372;BME280;70827;52.206;5.294;2024-02-16T07:29:01;100806.63;;;10.54;81.61
81372;BME280;70827;52.206;5.294;2024-02-16T07:31:32;100803.09;;;10.61;81.26
81372;BME280;70827;52.206;5.294;2024-02-16T07:33:57;100803.13;;;10.60;81.40
81372;BME280;70827;52.206;5.294;2024-02-16T07:36:23;100802.31;;;10.53;81.53
81372;BME280;70827;52.206;5.294;2024-02-16T07:38:49;100812.53;;;10.65;81.48
81372;BME280;70827;52.206;5.294;2024-02-16T07:41:14;100810.69;;;10.72;81.47
81372;BME280;70827;52.206;5.294;2024-02-16T07:43:40;100819.28;;;10.74;81.69
81372;BME280;70827;52.206;5.294;2024-02-16T07:46:08;100817.63;;;10.70;81.50
81372;BME280;70827;52.206;5.294;2024-02-16T07:48:34;100827.88;;;10.79;81.56
81372;BME280;70827;52.206;5.294;2024-02-16T07:50:59;100824.31;;;10.86;81.56
81372;BME280;70827;52.206;5.294;2024-02-16T07:53:25;100824.47;;;10.77;81.61
81372;BME280;70827;52.206;5.294;2024-02-16T07:55:51;100826.88;;;10.88;81.73
81372;BME280;70827;52.206;5.294;2024-02-16T07:58:16;100843.16;;;10.97;81.71
81372;BME280;70827;52.206;5.294;2024-02-16T08:00:42;100840.56;;;10.97;81.50
81372;BME280;70827;52.206;5.294;2024-02-16T08:03:10;100840.50;;;11.02;81.42
81372;BME280;70827;52.206;5.294;2024-02-16T08:05:36;100848.13;;;11.12;81.04
81372;BME280;70827;52.206;5.294;2024-02-16T08:08:04;100856.84;;;11.07;81.40
81372;BME280;70827;52.206;5.294;2024-02-16T08:10:29;100855.84;;;11.15;81.14
81372;BME280;70827;52.206;5.294;2024-02-16T08:12:55;100854.09;;;11.16;81.06
81372;BME280;70827;52.206;5.294;2024-02-16T08:15:21;100853.19;;;11.19;81.22
81372;BME280;70827;52.206;5.294;2024-02-16T08:17:46;100866.84;;;11.30;80.88
81372;BME280;70827;52.206;5.294;2024-02-16T08:20:14;100861.63;;;11.33;80.80
81372;BME280;70827;52.206;5.294;2024-02-16T08:22:40;100863.28;;;11.37;81.11
81372;BME280;70827;52.206;5.294;2024-02-16T08:25:07;100872.66;;;11.45;80.43
81372;BME280;70827;52.206;5.294;2024-02-16T08:27:32;100877.91;;;11.42;80.73
81372;BME280;70827;52.206;5.294;2024-02-16T08:29:58;100882.94;;;11.50;80.26
81372;BME280;70827;52.206;5.294;2024-02-16T08:32:23;100877.53;;;11.64;80.34
81372;BME280;70827;52.206;5.294;2024-02-16T08:34:49;100881.84;;;11.65;80.04
81372;BME280;70827;52.206;5.294;2024-02-16T08:37:17;100881.78;;;11.68;79.71
81372;BME280;70827;52.206;5.294;2024-02-16T08:39:43;100881.69;;;11.72;80.13
81372;BME280;70827;52.206;5.294;2024-02-16T08:42:09;100878.16;;;11.80;79.88
81372;BME280;70827;52.206;5.294;2024-02-16T08:44:34;100878.13;;;11.81;79.79
81372;BME280;70827;52.206;5.294;2024-02-16T08:47:00;100879.81;;;11.82;79.57
81372;BME280;70827;52.206;5.294;2024-02-16T08:49:25;100888.34;;;11.89;79.64
81372;BME280;70827;52.206;5.294;2024-02-16T08:51:51;100877.94;;;11.90;79.67
81372;BME280;70827;52.206;5.294;2024-02-16T08:54:19;100900.38;;;11.94;79.84
81372;BME280;70827;52.206;5.294;2024-02-16T08:56:45;100898.25;;;12.15;79.46
81372;BME280;70827;52.206;5.294;2024-02-16T08:59:11;100906.09;;;12.13;79.50
81372;BME280;70827;52.206;5.294;2024-02-16T09:01:37;100905.31;;;12.10;79.79
81372;BME280;70827;52.206;5.294;2024-02-16T09:04:03;100909.47;;;12.17;79.66
81372;BME280;70827;52.206;5.294;2024-02-16T09:06:29;100901.72;;;12.15;79.83
81372;BME280;70827;52.206;5.294;2024-02-16T09:08:55;100895.72;;;12.12;80.11
81372;BME280;70827;52.206;5.294;2024-02-16T09:11:23;100918.22;;;12.13;80.34
81372;BME280;70827;52.206;5.294;2024-02-16T09:13:49;100911.34;;;12.10;80.21
81372;BME280;70827;52.206;5.294;2024-02-16T09:16:15;100918.25;;;12.11;80.39
81372;BME280;70827;52.206;5.294;2024-02-16T09:18:40;100938.19;;;12.09;80.15
81372;BME280;70827;52.206;5.294;2024-02-16T09:21:06;100922.72;;;12.03;80.42
81372;BME280;70827;52.206;5.294;2024-02-16T09:23:32;100946.97;;;12.03;80.67
81372;BME280;70827;52.206;5.294;2024-02-16T09:25:58;100949.75;;;11.94;81.57
81372;BME280;70827;52.206;5.294;2024-02-16T09:28:27;100947.44;;;11.76;82.83
81372;BME280;70827;52.206;5.294;2024-02-16T09:30:54;100962.31;;;11.66;84.51
81372;BME280;70827;52.206;5.294;2024-02-16T09:33:19;100962.34;;;11.65;85.69
81372;BME280;70827;52.206;5.294;2024-02-16T09:35:45;100954.56;;;11.63;86.04
81372;BME280;70827;52.206;5.294;2024-02-16T09:38:10;100963.34;;;11.55;87.05
81372;BME280;70827;52.206;5.294;2024-02-16T09:40:36;100971.16;;;11.53;87.64
81372;BME280;70827;52.206;5.294;2024-02-16T09:43:02;100976.28;;;11.58;87.63
81372;BME280;70827;52.206;5.294;2024-02-16T09:45:30;100978.06;;;11.54;88.08
81372;BME280;70827;52.206;5.294;2024-02-16T09:47:57;100971.88;;;11.63;87.92
81372;BME280;70827;52.206;5.294;2024-02-16T09:50:23;100985.66;;;11.68;88.17
81372;BME280;70827;52.206;5.294;2024-02-16T09:52:50;100990.91;;;11.65;87.91
81372;BME280;70827;52.206;5.294;2024-02-16T09:55:17;100986.53;;;11.67;88.05
81372;BME280;70827;52.206;5.294;2024-02-16T09:57:43;100994.25;;;11.70;88.02
81372;BME280;70827;52.206;5.294;2024-02-16T10:00:09;100994.09;;;11.82;87.89
81372;BME280;70827;52.206;5.294;2024-02-16T10:02:42;101017.56;;;11.76;87.64
81372;BME280;70827;52.206;5.294;2024-02-16T10:05:13;101022.78;;;11.73;87.15
81372;BME280;70827;52.206;5.294;2024-02-16T10:07:39;101018.47;;;11.72;86.90
81372;BME280;70827;52.206;5.294;2024-02-16T10:10:06;101020.13;;;11.78;87.13
81372;BME280;70827;52.206;5.294;2024-02-16T10:12:31;101036.66;;;11.70;86.80
81372;BME280;70827;52.206;5.294;2024-02-16T10:14:57;101033.16;;;11.73;86.68
81372;BME280;70827;52.206;5.294;2024-02-16T10:17:22;101035.03;;;11.65;86.96
81372;BME280;70827;52.206;5.294;2024-02-16T10:19:58;101035.94;;;11.62;87.33
81372;BME280;70827;52.206;5.294;2024-02-16T10:22:24;101054.19;;;11.56;88.14
81372;BME280;70827;52.206;5.294;2024-02-16T10:24:50;101062.16;;;11.45;88.66
81372;BME280;70827;52.206;5.294;2024-02-16T10:27:15;101071.78;;;11.36;89.71
81372;BME280;70827;52.206;5.294;2024-02-16T10:29:42;101075.25;;;11.35;90.28
81372;BME280;70827;52.206;5.294;2024-02-16T10:32:08;101084.88;;;11.28;90.66
81372;BME280;70827;52.206;5.294;2024-02-16T10:34:34;101080.69;;;11.17;91.31
81372;BME280;70827;52.206;5.294;2024-02-16T10:37:04;101096.19;;;11.21;91.91
81372;BME280;70827;52.206;5.294;2024-02-16T10:39:30;101108.41;;;11.13;92.43
81372;BME280;70827;52.206;5.294;2024-02-16T10:41:56;101121.25;;;11.22;92.88
81372;BME280;70827;52.206;5.294;2024-02-16T10:44:23;101124.09;;;11.02;93.28
81372;BME280;70827;52.206;5.294;2024-02-16T10:46:50;101122.41;;;10.98;93.86
81372;BME280;70827;52.206;5.294;2024-02-16T10:49:15;101136.25;;;10.99;94.06
81372;BME280;70827;52.206;5.294;2024-02-16T10:51:43;101127.72;;;10.88;94.75
81372;BME280;70827;52.206;5.294;2024-02-16T10:54:13;101151.97;;;10.83;94.92
81372;BME280;70827;52.206;5.294;2024-02-16T10:56:40;101157.25;;;10.76;95.48
81372;BME280;70827;52.206;5.294;2024-02-16T10:59:08;101157.22;;;10.77;95.78
81372;BME280;70827;52.206;5.294;2024-02-16T11:01:37;101148.59;;;10.74;96.17
81372;BME280;70827;52.206;5.294;2024-02-16T11:04:03;101150.34;;;10.70;96.34
81372;BME280;70827;52.206;5.294;2024-02-16T11:06:29;101155.50;;;10.76;96.81
81372;BME280;70827;52.206;5.294;2024-02-16T11:09:01;101153.78;;;10.77;96.82
81372;BME280;70827;52.206;5.294;2024-02-16T11:11:29;101147.72;;;10.73;97.20
81372;BME280;70827;52.206;5.294;2024-02-16T11:13:55;101159.84;;;10.76;97.10
81372;BME280;70827;52.206;5.294;2024-02-16T11:16:20;101143.41;;;10.75;97.33
81372;BME280;70827;52.206;5.294;2024-02-16T11:18:46;101148.47;;;10.86;97.59
81372;BME280;70827;52.206;5.294;2024-02-16T11:21:12;101162.25;;;10.90;97.40
81372;BME280;70827;52.206;5.294;2024-02-16T11:23:38;101160.56;;;10.87;97.71
81372;BME280;70827;52.206;5.294;2024-02-16T11:26:05;101156.25;;;10.86;97.58
81372;BME280;70827;52.206;5.294;2024-02-16T11:28:36;101165.69;;;10.92;97.93
81372;BME280;70827;52.206;5.294;2024-02-16T11:31:03;101164.00;;;10.88;98.02
81372;BME280;70827;52.206;5.294;2024-02-16T11:33:29;101160.66;;;10.79;98.19
81372;BME280;70827;52.206;5.294;2024-02-16T11:35:55;101169.34;;;10.75;97.99
81372;BME280;70827;52.206;5.294;2024-02-16T11:38:21;101169.25;;;10.84;98.28
81372;BME280;70827;52.206;5.294;2024-02-16T11:40:53;101178.81;;;10.78;98.11
81372;BME280;70827;52.206;5.294;2024-02-16T11:43:20;101169.31;;;10.77;98.32
81372;BME280;70827;52.206;5.294;2024-02-16T11:45:48;101181.34;;;10.84;98.46
81372;BME280;70827;52.206;5.294;2024-02-16T11:48:19;101190.94;;;10.74;98.41
81372;BME280;70827;52.206;5.294;2024-02-16T11:50:44;101209.94;;;10.75;98.65
81372;BME280;70827;52.206;5.294;2024-02-16T11:53:10;101209.13;;;10.71;98.52
81372;BME280;70827;52.206;5.294;2024-02-16T11:55:40;101219.44;;;10.79;98.86
81372;BME280;70827;52.206;5.294;2024-02-16T11:58:11;101231.59;;;10.69;98.57
81372;BME280;70827;52.206;5.294;2024-02-16T12:00:36;101242.00;;;10.68;98.75
81372;BME280;70827;52.206;5.294;2024-02-16T12:03:05;101242.06;;;10.60;98.93
81372;BME280;70827;52.206;5.294;2024-02-16T12:05:30;101236.84;;;10.63;99.04
81372;BME280;70827;52.206;5.294;2024-02-16T12:07:57;101249.84;;;10.57;98.80
81372;BME280;70827;52.206;5.294;2024-02-16T12:10:23;101249.03;;;10.52;99.07
81372;BME280;70827;52.206;5.294;2024-02-16T12:12:50;101262.78;;;10.63;98.85
81372;BME280;70827;52.206;5.294;2024-02-16T12:15:15;101260.13;;;10.71;98.95
81372;BME280;70827;52.206;5.294;2024-02-16T12:17:41;101273.78;;;10.90;99.14
81372;BME280;70827;52.206;5.294;2024-02-16T12:20:15;101277.28;;;10.85;99.08
81372;BME280;70827;52.206;5.294;2024-02-16T12:22:40;101283.41;;;10.80;99.37
81372;BME280;70827;52.206;5.294;2024-02-16T12:25:07;101280.09;;;10.60;99.28
81372;BME280;70827;52.206;5.294;2024-02-16T12:27:33;101294.78;;;10.59;99.02
81372;BME280;70827;52.206;5.294;2024-02-16T12:29:58;101296.59;;;10.45;99.25
81372;BME280;70827;52.206;5.294;2024-02-16T12:32:24;101297.47;;;10.45;99.03
81372;BME280;70827;52.206;5.294;2024-02-16T12:34:49;101289.69;;;10.41;98.85
81372;BME280;70827;52.206;5.294;2024-02-16T12:37:18;101291.28;;;10.65;98.82
81372;BME280;70827;52.206;5.294;2024-02-16T12:39:43;101295.53;;;10.72;98.93
81372;BME280;70827;52.206;5.294;2024-02-16T12:42:09;101291.31;;;10.62;98.70
81372;BME280;70827;52.206;5.294;2024-02-16T12:44:34;101297.25;;;10.77;98.60